sensor_id;sensor_type;location;lat;lon;timestamp;P1;durP1;ratioP1;P2;durP2;ratioP2
15946;SDS011;8072;52.554;7.966;2023-03-08T00:01:14;10.87;;;7.03;;
15946;SDS011;8072;52.554;7.966;2023-03-08T00:03:42;11.57;;;6.47;;
15946;SDS011;8072;52.554;7.966;2023-03-08T00:06:15;9.80;;;6.70;;
15946;SDS011;8072;52.554;7.966;2023-03-08T00:08:41;10.07;;;6.77;;
15946;SDS011;8072;52.554;7.966;2023-03-08T00:11:08;10.07;;;6.87;;
15946;SDS011;8072;52.554;7.966;2023-03-08T00:13:36;10.07;;;7.27;;
15946;SDS011;8072;52.554;7.966;2023-03-08T00:16:04;12.87;;;7.07;;
15946;SDS011;8072;52.554;7.966;2023-03-08T00:18:32;11.73;;;7.37;;
15946;SDS011;8072;52.554;7.966;2023-03-08T00:20:59;11.83;;;7.70;;
15946;SDS011;8072;52.554;7.966;2023-03-08T00:23:26;13.67;;;6.83;;
15946;SDS011;8072;52.554;7.966;2023-03-08T00:25:52;14.13;;;7.27;;
15946;SDS011;8072;52.554;7.966;2023-03-08T00:28:18;13.07;;;7.90;;
15946;SDS011;8072;52.554;7.966;2023-03-08T00:30:44;12.33;;;6.87;;
15946;SDS011;8072;52.554;7.966;2023-03-08T00:33:10;10.80;;;6.93;;
15946;SDS011;8072;52.554;7.966;2023-03-08T00:35:36;13.60;;;7.33;;
15946;SDS011;8072;52.554;7.966;2023-03-08T00:38:02;9.60;;;6.07;;
15946;SDS011;8072;52.554;7.966;2023-03-08T00:40:27;11.43;;;7.33;;
15946;SDS011;8072;52.554;7.966;2023-03-08T00:42:53;13.00;;;8.03;;
15946;SDS011;8072;52.554;7.966;2023-03-08T00:45:19;12.10;;;7.23;;
15946;SDS011;8072;52.554;7.966;2023-03-08T00:47:44;11.60;;;7.67;;
15946;SDS011;8072;52.554;7.966;2023-03-08T00:50:10;12.07;;;7.73;;
15946;SDS011;8072;52.554;7.966;2023-03-08T00:52:36;13.37;;;7.83;;
15946;SDS011;8072;52.554;7.966;2023-03-08T00:55:02;12.80;;;7.60;;
15946;SDS011;8072;52.554;7.966;2023-03-08T00:57:28;10.70;;;7.10;;
15946;SDS011;8072;52.554;7.966;2023-03-08T00:59:54;12.53;;;7.50;;
15946;SDS011;8072;52.554;7.966;2023-03-08T01:02:20;15.17;;;6.60;;
15946;SDS011;8072;52.554;7.966;2023-03-08T01:04:46;12.70;;;7.13;;
15946;SDS011;8072;52.554;7.966;2023-03-08T01:07:12;12.17;;;7.90;;
15946;SDS011;8072;52.554;7.966;2023-03-08T01:09:37;13.60;;;7.90;;
15946;SDS011;8072;52.554;7.966;2023-03-08T01:12:03;12.80;;;7.47;;
15946;SDS011;8072;52.554;7.966;2023-03-08T01:14:29;14.50;;;7.27;;
15946;SDS011;8072;52.554;7.966;2023-03-08T01:16:55;12.13;;;7.60;;
15946;SDS011;8072;52.554;7.966;2023-03-08T01:19:20;10.53;;;6.50;;
15946;SDS011;8072;52.554;7.966;2023-03-08T01:21:46;12.40;;;7.03;;
15946;SDS011;8072;52.554;7.966;2023-03-08T01:24:12;11.93;;;6.60;;
15946;SDS011;8072;52.554;7.966;2023-03-08T01:26:37;16.70;;;6.60;;
15946;SDS011;8072;52.554;7.966;2023-03-08T01:29:03;10.10;;;7.03;;
15946;SDS011;8072;52.554;7.966;2023-03-08T01:31:29;11.73;;;7.67;;
15946;SDS011;8072;52.554;7.966;2023-03-08T01:33:55;18.53;;;8.13;;
15946;SDS011;8072;52.554;7.966;2023-03-08T01:36:22;12.17;;;7.97;;
15946;SDS011;8072;52.554;7.966;2023-03-08T01:38:49;10.00;;;6.83;;
15946;SDS011;8072;52.554;7.966;2023-03-08T01:41:17;14.90;;;8.37;;
15946;SDS011;8072;52.554;7.966;2023-03-08T01:43:52;12.60;;;7.37;;
15946;SDS011;8072;52.554;7.966;2023-03-08T01:46:34;12.43;;;6.73;;
15946;SDS011;8072;52.554;7.966;2023-03-08T01:51:38;14.27;;;8.47;;
15946;SDS011;8072;52.554;7.966;2023-03-08T01:57:10;14.17;;;7.67;;
15946;SDS011;8072;52.554;7.966;2023-03-08T01:59:40;16.03;;;7.80;;
15946;SDS011;8072;52.554;7.966;2023-03-08T02:02:07;17.00;;;8.13;;
15946;SDS011;8072;52.554;7.966;2023-03-08T02:04:33;17.13;;;7.93;;
15946;SDS011;8072;52.554;7.966;2023-03-08T02:06:59;13.23;;;8.30;;
15946;SDS011;8072;52.554;7.966;2023-03-08T02:09:25;15.90;;;8.17;;
15946;SDS011;8072;52.554;7.966;2023-03-08T02:11:51;15.77;;;8.20;;
15946;SDS011;8072;52.554;7.966;2023-03-08T02:14:17;13.23;;;8.23;;
15946;SDS011;8072;52.554;7.966;2023-03-08T02:16:43;14.17;;;7.47;;
15946;SDS011;8072;52.554;7.966;2023-03-08T02:19:10;13.33;;;8.07;;
15946;SDS011;8072;52.554;7.966;2023-03-08T02:21:41;13.93;;;8.60;;
15946;SDS011;8072;52.554;7.966;2023-03-08T02:24:19;14.83;;;7.80;;
15946;SDS011;8072;52.554;7.966;2023-03-08T02:26:47;14.50;;;7.93;;
15946;SDS011;8072;52.554;7.966;2023-03-08T02:29:15;14.07;;;8.13;;
15946;SDS011;8072;52.554;7.966;2023-03-08T02:31:41;14.03;;;7.93;;
15946;SDS011;8072;52.554;7.966;2023-03-08T02:34:06;17.20;;;8.63;;
15946;SDS011;8072;52.554;7.966;2023-03-08T02:36:32;12.17;;;7.80;;
15946;SDS011;8072;52.554;7.966;2023-03-08T02:38:58;12.67;;;8.30;;
15946;SDS011;8072;52.554;7.966;2023-03-08T02:41:23;15.20;;;8.13;;
15946;SDS011;8072;52.554;7.966;2023-03-08T02:43:49;15.40;;;8.47;;
15946;SDS011;8072;52.554;7.966;2023-03-08T02:46:15;13.57;;;7.80;;
15946;SDS011;8072;52.554;7.966;2023-03-08T02:48:40;14.43;;;7.93;;
15946;SDS011;8072;52.554;7.966;2023-03-08T02:51:06;16.63;;;9.10;;
15946;SDS011;8072;52.554;7.966;2023-03-08T02:53:32;15.50;;;8.10;;
15946;SDS011;8072;52.554;7.966;2023-03-08T02:55:57;15.27;;;8.20;;
15946;SDS011;8072;52.554;7.966;2023-03-08T02:58:23;15.90;;;8.07;;
15946;SDS011;8072;52.554;7.966;2023-03-08T03:00:49;15.83;;;8.57;;
15946;SDS011;8072;52.554;7.966;2023-03-08T03:03:15;13.80;;;8.40;;
15946;SDS011;8072;52.554;7.966;2023-03-08T03:05:41;14.90;;;8.03;;
15946;SDS011;8072;52.554;7.966;2023-03-08T03:08:08;19.73;;;9.50;;
15946;SDS011;8072;52.554;7.966;2023-03-08T03:10:36;19.13;;;10.03;;
15946;SDS011;8072;52.554;7.966;2023-03-08T03:13:04;15.63;;;9.23;;
15946;SDS011;8072;52.554;7.966;2023-03-08T03:15:30;20.03;;;10.60;;
15946;SDS011;8072;52.554;7.966;2023-03-08T03:17:57;17.03;;;10.53;;
15946;SDS011;8072;52.554;7.966;2023-03-08T03:20:24;18.50;;;11.10;;
15946;SDS011;8072;52.554;7.966;2023-03-08T03:22:50;18.07;;;10.23;;
15946;SDS011;8072;52.554;7.966;2023-03-08T03:25:17;18.87;;;10.43;;
15946;SDS011;8072;52.554;7.966;2023-03-08T03:27:42;25.27;;;10.83;;
15946;SDS011;8072;52.554;7.966;2023-03-08T03:30:09;23.20;;;11.30;;
15946;SDS011;8072;52.554;7.966;2023-03-08T03:32:35;21.80;;;11.07;;
15946;SDS011;8072;52.554;7.966;2023-03-08T03:35:01;19.47;;;11.40;;
15946;SDS011;8072;52.554;7.966;2023-03-08T03:37:27;23.67;;;11.93;;
15946;SDS011;8072;52.554;7.966;2023-03-08T03:39:55;23.63;;;11.13;;
15946;SDS011;8072;52.554;7.966;2023-03-08T03:42:20;22.40;;;11.97;;
15946;SDS011;8072;52.554;7.966;2023-03-08T03:44:46;23.20;;;12.10;;
15946;SDS011;8072;52.554;7.966;2023-03-08T03:47:12;24.50;;;11.90;;
15946;SDS011;8072;52.554;7.966;2023-03-08T03:49:37;25.67;;;12.30;;
15946;SDS011;8072;52.554;7.966;2023-03-08T03:52:03;23.50;;;12.80;;
15946;SDS011;8072;52.554;7.966;2023-03-08T03:54:29;22.40;;;12.80;;
15946;SDS011;8072;52.554;7.966;2023-03-08T03:56:55;26.27;;;11.90;;
15946;SDS011;8072;52.554;7.966;2023-03-08T03:59:22;22.70;;;11.70;;
15946;SDS011;8072;52.554;7.966;2023-03-08T04:01:49;23.07;;;12.37;;
15946;SDS011;8072;52.554;7.966;2023-03-08T04:04:16;23.80;;;13.07;;
15946;SDS011;8072;52.554;7.966;2023-03-08T04:06:41;27.23;;;13.27;;
15946;SDS011;8072;52.554;7.966;2023-03-08T04:09:09;22.67;;;11.53;;
15946;SDS011;8072;52.554;7.966;2023-03-08T04:11:39;25.40;;;12.90;;
15946;SDS011;8072;52.554;7.966;2023-03-08T04:14:05;23.17;;;12.00;;
15946;SDS011;8072;52.554;7.966;2023-03-08T04:16:32;24.90;;;11.57;;
15946;SDS011;8072;52.554;7.966;2023-03-08T04:19:00;25.60;;;12.30;;
15946;SDS011;8072;52.554;7.966;2023-03-08T04:21:28;28.13;;;13.10;;
15946;SDS011;8072;52.554;7.966;2023-03-08T04:23:55;28.37;;;13.43;;
15946;SDS011;8072;52.554;7.966;2023-03-08T04:26:21;30.50;;;13.47;;
15946;SDS011;8072;52.554;7.966;2023-03-08T04:28:47;25.07;;;12.80;;
15946;SDS011;8072;52.554;7.966;2023-03-08T04:31:21;25.70;;;13.03;;
15946;SDS011;8072;52.554;7.966;2023-03-08T04:33:48;31.43;;;13.20;;
15946;SDS011;8072;52.554;7.966;2023-03-08T04:36:15;27.00;;;12.77;;
15946;SDS011;8072;52.554;7.966;2023-03-08T04:38:41;26.10;;;13.53;;
15946;SDS011;8072;52.554;7.966;2023-03-08T04:41:08;31.13;;;14.27;;
15946;SDS011;8072;52.554;7.966;2023-03-08T04:43:37;27.43;;;14.50;;
15946;SDS011;8072;52.554;7.966;2023-03-08T04:46:04;30.33;;;14.10;;
15946;SDS011;8072;52.554;7.966;2023-03-08T04:48:31;30.53;;;14.37;;
15946;SDS011;8072;52.554;7.966;2023-03-08T04:50:58;27.67;;;14.20;;
15946;SDS011;8072;52.554;7.966;2023-03-08T04:53:26;27.03;;;14.00;;
15946;SDS011;8072;52.554;7.966;2023-03-08T04:55:53;27.77;;;14.07;;
15946;SDS011;8072;52.554;7.966;2023-03-08T04:58:20;30.20;;;13.83;;
15946;SDS011;8072;52.554;7.966;2023-03-08T05:00:46;28.33;;;14.70;;
15946;SDS011;8072;52.554;7.966;2023-03-08T05:03:12;30.13;;;13.63;;
15946;SDS011;8072;52.554;7.966;2023-03-08T05:05:45;33.93;;;13.33;;
15946;SDS011;8072;52.554;7.966;2023-03-08T05:08:12;28.60;;;12.87;;
15946;SDS011;8072;52.554;7.966;2023-03-08T05:10:38;23.93;;;13.03;;
15946;SDS011;8072;52.554;7.966;2023-03-08T05:13:04;29.17;;;13.40;;
15946;SDS011;8072;52.554;7.966;2023-03-08T05:15:29;28.70;;;13.53;;
15946;SDS011;8072;52.554;7.966;2023-03-08T05:17:55;27.10;;;14.80;;
15946;SDS011;8072;52.554;7.966;2023-03-08T05:20:21;26.77;;;13.87;;
15946;SDS011;8072;52.554;7.966;2023-03-08T05:22:46;31.50;;;15.00;;
15946;SDS011;8072;52.554;7.966;2023-03-08T05:25:12;27.10;;;13.87;;
15946;SDS011;8072;52.554;7.966;2023-03-08T05:27:38;26.30;;;14.23;;
15946;SDS011;8072;52.554;7.966;2023-03-08T05:30:04;28.70;;;14.60;;
15946;SDS011;8072;52.554;7.966;2023-03-08T05:32:30;26.63;;;13.73;;
15946;SDS011;8072;52.554;7.966;2023-03-08T05:34:56;27.53;;;14.07;;
15946;SDS011;8072;52.554;7.966;2023-03-08T05:37:21;28.83;;;13.43;;
15946;SDS011;8072;52.554;7.966;2023-03-08T05:39:50;26.20;;;13.03;;
15946;SDS011;8072;52.554;7.966;2023-03-08T05:42:16;28.23;;;13.63;;
15946;SDS011;8072;52.554;7.966;2023-03-08T05:44:43;26.97;;;13.33;;
15946;SDS011;8072;52.554;7.966;2023-03-08T05:47:09;27.97;;;13.27;;
15946;SDS011;8072;52.554;7.966;2023-03-08T05:49:35;30.80;;;13.13;;
15946;SDS011;8072;52.554;7.966;2023-03-08T05:52:00;23.40;;;12.57;;
15946;SDS011;8072;52.554;7.966;2023-03-08T05:54:26;28.57;;;13.63;;
15946;SDS011;8072;52.554;7.966;2023-03-08T05:56:52;29.33;;;12.47;;
15946;SDS011;8072;52.554;7.966;2023-03-08T05:59:17;27.20;;;13.07;;
15946;SDS011;8072;52.554;7.966;2023-03-08T06:01:43;25.70;;;12.60;;
15946;SDS011;8072;52.554;7.966;2023-03-08T06:04:09;27.73;;;12.60;;
15946;SDS011;8072;52.554;7.966;2023-03-08T06:06:34;26.70;;;12.47;;
15946;SDS011;8072;52.554;7.966;2023-03-08T06:09:00;27.13;;;13.00;;
15946;SDS011;8072;52.554;7.966;2023-03-08T06:11:26;23.90;;;11.73;;
15946;SDS011;8072;52.554;7.966;2023-03-08T06:13:52;26.73;;;12.87;;
15946;SDS011;8072;52.554;7.966;2023-03-08T06:16:18;25.27;;;12.80;;
15946;SDS011;8072;52.554;7.966;2023-03-08T06:18:44;26.30;;;13.63;;
15946;SDS011;8072;52.554;7.966;2023-03-08T06:21:14;28.50;;;13.30;;
15946;SDS011;8072;52.554;7.966;2023-03-08T06:23:42;26.50;;;13.47;;
15946;SDS011;8072;52.554;7.966;2023-03-08T06:26:09;27.00;;;12.93;;
15946;SDS011;8072;52.554;7.966;2023-03-08T06:28:35;28.60;;;13.10;;
15946;SDS011;8072;52.554;7.966;2023-03-08T06:31:04;26.07;;;12.83;;
15946;SDS011;8072;52.554;7.966;2023-03-08T06:33:32;24.17;;;12.77;;
15946;SDS011;8072;52.554;7.966;2023-03-08T06:38:32;31.83;;;13.50;;
15946;SDS011;8072;52.554;7.966;2023-03-08T06:41:00;28.47;;;13.13;;
15946;SDS011;8072;52.554;7.966;2023-03-08T06:43:27;28.10;;;13.07;;
15946;SDS011;8072;52.554;7.966;2023-03-08T06:45:53;28.03;;;12.73;;
15946;SDS011;8072;52.554;7.966;2023-03-08T06:48:19;24.23;;;12.80;;
15946;SDS011;8072;52.554;7.966;2023-03-08T06:50:45;23.93;;;12.27;;
15946;SDS011;8072;52.554;7.966;2023-03-08T06:53:11;28.67;;;11.60;;
15946;SDS011;8072;52.554;7.966;2023-03-08T06:55:38;28.47;;;11.97;;
15946;SDS011;8072;52.554;7.966;2023-03-08T06:58:04;25.43;;;12.10;;
15946;SDS011;8072;52.554;7.966;2023-03-08T07:00:31;27.63;;;12.83;;
15946;SDS011;8072;52.554;7.966;2023-03-08T07:02:57;25.97;;;11.57;;
15946;SDS011;8072;52.554;7.966;2023-03-08T07:05:23;28.97;;;11.87;;
15946;SDS011;8072;52.554;7.966;2023-03-08T07:07:50;24.63;;;12.03;;
15946;SDS011;8072;52.554;7.966;2023-03-08T07:10:16;26.37;;;12.27;;
15946;SDS011;8072;52.554;7.966;2023-03-08T07:12:44;27.37;;;12.43;;
15946;SDS011;8072;52.554;7.966;2023-03-08T07:15:13;30.23;;;12.20;;
15946;SDS011;8072;52.554;7.966;2023-03-08T07:17:44;26.57;;;11.70;;
15946;SDS011;8072;52.554;7.966;2023-03-08T07:20:11;25.87;;;12.60;;
15946;SDS011;8072;52.554;7.966;2023-03-08T07:22:39;26.13;;;12.13;;
15946;SDS011;8072;52.554;7.966;2023-03-08T07:25:08;23.73;;;11.97;;
15946;SDS011;8072;52.554;7.966;2023-03-08T07:27:37;26.13;;;11.87;;
15946;SDS011;8072;52.554;7.966;2023-03-08T07:30:04;27.23;;;12.33;;
15946;SDS011;8072;52.554;7.966;2023-03-08T07:32:33;23.37;;;12.03;;
15946;SDS011;8072;52.554;7.966;2023-03-08T07:35:00;24.60;;;11.97;;
15946;SDS011;8072;52.554;7.966;2023-03-08T07:37:26;21.67;;;10.77;;
15946;SDS011;8072;52.554;7.966;2023-03-08T07:39:51;27.10;;;12.20;;
15946;SDS011;8072;52.554;7.966;2023-03-08T07:42:17;23.50;;;10.70;;
15946;SDS011;8072;52.554;7.966;2023-03-08T07:44:44;21.63;;;11.13;;
15946;SDS011;8072;52.554;7.966;2023-03-08T07:47:10;21.50;;;11.23;;
15946;SDS011;8072;52.554;7.966;2023-03-08T07:49:36;24.60;;;12.13;;
15946;SDS011;8072;52.554;7.966;2023-03-08T07:52:02;21.77;;;10.73;;
15946;SDS011;8072;52.554;7.966;2023-03-08T07:54:28;22.27;;;11.33;;
15946;SDS011;8072;52.554;7.966;2023-03-08T07:56:54;24.23;;;11.00;;
15946;SDS011;8072;52.554;7.966;2023-03-08T07:59:20;23.93;;;11.37;;
15946;SDS011;8072;52.554;7.966;2023-03-08T08:01:47;25.33;;;10.97;;
15946;SDS011;8072;52.554;7.966;2023-03-08T08:04:12;22.50;;;11.03;;
15946;SDS011;8072;52.554;7.966;2023-03-08T08:06:38;24.63;;;11.00;;
15946;SDS011;8072;52.554;7.966;2023-03-08T08:09:05;20.40;;;10.27;;
15946;SDS011;8072;52.554;7.966;2023-03-08T08:11:31;25.67;;;11.40;;
15946;SDS011;8072;52.554;7.966;2023-03-08T08:13:58;21.33;;;10.33;;
15946;SDS011;8072;52.554;7.966;2023-03-08T08:16:25;24.03;;;11.33;;
15946;SDS011;8072;52.554;7.966;2023-03-08T08:18:51;23.90;;;11.43;;
15946;SDS011;8072;52.554;7.966;2023-03-08T08:21:18;24.47;;;11.03;;
15946;SDS011;8072;52.554;7.966;2023-03-08T08:23:45;20.70;;;10.93;;
15946;SDS011;8072;52.554;7.966;2023-03-08T08:26:13;22.30;;;11.00;;
15946;SDS011;8072;52.554;7.966;2023-03-08T08:28:44;24.13;;;11.97;;
15946;SDS011;8072;52.554;7.966;2023-03-08T08:31:13;26.40;;;12.23;;
15946;SDS011;8072;52.554;7.966;2023-03-08T08:33:40;26.60;;;11.97;;
15946;SDS011;8072;52.554;7.966;2023-03-08T08:36:07;21.90;;;11.03;;
15946;SDS011;8072;52.554;7.966;2023-03-08T08:38:35;20.83;;;10.03;;
15946;SDS011;8072;52.554;7.966;2023-03-08T08:41:04;23.07;;;11.20;;
15946;SDS011;8072;52.554;7.966;2023-03-08T08:43:32;21.83;;;10.83;;
15946;SDS011;8072;52.554;7.966;2023-03-08T08:46:00;22.37;;;11.73;;
15946;SDS011;8072;52.554;7.966;2023-03-08T08:48:27;24.60;;;11.60;;
15946;SDS011;8072;52.554;7.966;2023-03-08T08:50:53;26.80;;;11.73;;
15946;SDS011;8072;52.554;7.966;2023-03-08T08:53:19;23.87;;;11.77;;
15946;SDS011;8072;52.554;7.966;2023-03-08T08:55:46;25.00;;;12.03;;
15946;SDS011;8072;52.554;7.966;2023-03-08T08:58:12;27.93;;;13.30;;
15946;SDS011;8072;52.554;7.966;2023-03-08T09:00:39;23.37;;;12.37;;
15946;SDS011;8072;52.554;7.966;2023-03-08T09:03:05;26.77;;;13.07;;
15946;SDS011;8072;52.554;7.966;2023-03-08T09:05:31;25.80;;;12.47;;
15946;SDS011;8072;52.554;7.966;2023-03-08T09:07:59;27.13;;;13.23;;
15946;SDS011;8072;52.554;7.966;2023-03-08T09:10:26;25.83;;;12.97;;
15946;SDS011;8072;52.554;7.966;2023-03-08T09:12:53;27.90;;;13.03;;
15946;SDS011;8072;52.554;7.966;2023-03-08T09:15:19;27.63;;;12.23;;
15946;SDS011;8072;52.554;7.966;2023-03-08T09:17:48;26.20;;;12.73;;
15946;SDS011;8072;52.554;7.966;2023-03-08T09:20:14;29.57;;;12.90;;
15946;SDS011;8072;52.554;7.966;2023-03-08T09:22:41;23.97;;;11.83;;
15946;SDS011;8072;52.554;7.966;2023-03-08T09:25:07;24.77;;;12.07;;
15946;SDS011;8072;52.554;7.966;2023-03-08T09:27:34;29.53;;;12.93;;
15946;SDS011;8072;52.554;7.966;2023-03-08T09:30:02;28.27;;;13.47;;
15946;SDS011;8072;52.554;7.966;2023-03-08T09:32:31;27.73;;;12.37;;
15946;SDS011;8072;52.554;7.966;2023-03-08T09:34:58;24.30;;;11.90;;
15946;SDS011;8072;52.554;7.966;2023-03-08T09:37:24;26.73;;;13.03;;
15946;SDS011;8072;52.554;7.966;2023-03-08T09:39:50;27.77;;;12.87;;
15946;SDS011;8072;52.554;7.966;2023-03-08T09:42:26;24.20;;;11.80;;
15946;SDS011;8072;52.554;7.966;2023-03-08T10:00:51;27.60;;;14.00;;
15946;SDS011;8072;52.554;7.966;2023-03-08T10:06:02;27.70;;;11.93;;
15946;SDS011;8072;52.554;7.966;2023-03-08T10:11:44;26.03;;;12.87;;
15946;SDS011;8072;52.554;7.966;2023-03-08T10:14:26;22.73;;;11.80;;
15946;SDS011;8072;52.554;7.966;2023-03-08T10:16:58;25.70;;;12.77;;
15946;SDS011;8072;52.554;7.966;2023-03-08T10:19:39;25.90;;;12.63;;
15946;SDS011;8072;52.554;7.966;2023-03-08T10:22:22;22.63;;;10.90;;
15946;SDS011;8072;52.554;7.966;2023-03-08T10:24:54;21.93;;;11.27;;
15946;SDS011;8072;52.554;7.966;2023-03-08T10:27:26;20.63;;;10.77;;
15946;SDS011;8072;52.554;7.966;2023-03-08T10:29:57;22.57;;;10.93;;
15946;SDS011;8072;52.554;7.966;2023-03-08T10:32:24;23.60;;;11.30;;
15946;SDS011;8072;52.554;7.966;2023-03-08T10:34:52;21.43;;;10.13;;
15946;SDS011;8072;52.554;7.966;2023-03-08T10:37:28;20.97;;;9.83;;
15946;SDS011;8072;52.554;7.966;2023-03-08T10:39:56;22.43;;;10.87;;
15946;SDS011;8072;52.554;7.966;2023-03-08T10:42:27;23.27;;;11.43;;
15946;SDS011;8072;52.554;7.966;2023-03-08T10:47:39;19.50;;;9.57;;
15946;SDS011;8072;52.554;7.966;2023-03-08T10:52:42;17.10;;;8.57;;
15946;SDS011;8072;52.554;7.966;2023-03-08T10:55:14;18.63;;;9.30;;
15946;SDS011;8072;52.554;7.966;2023-03-08T10:57:42;15.30;;;8.37;;
15946;SDS011;8072;52.554;7.966;2023-03-08T11:02:44;13.20;;;7.73;;
15946;SDS011;8072;52.554;7.966;2023-03-08T11:07:52;16.90;;;8.93;;
15946;SDS011;8072;52.554;7.966;2023-03-08T11:10:19;15.37;;;7.87;;
15946;SDS011;8072;52.554;7.966;2023-03-08T11:12:48;12.57;;;7.37;;
15946;SDS011;8072;52.554;7.966;2023-03-08T11:15:28;15.97;;;8.33;;
15946;SDS011;8072;52.554;7.966;2023-03-08T11:17:59;14.47;;;8.43;;
15946;SDS011;8072;52.554;7.966;2023-03-08T11:20:41;12.33;;;6.63;;
15946;SDS011;8072;52.554;7.966;2023-03-08T11:26:09;11.13;;;6.53;;
15946;SDS011;8072;52.554;7.966;2023-03-08T11:37:22;11.50;;;6.03;;
15946;SDS011;8072;52.554;7.966;2023-03-08T11:51:41;7.23;;;4.30;;
15946;SDS011;8072;52.554;7.966;2023-03-08T11:53:53;8.50;;;4.60;;
15946;SDS011;8072;52.554;7.966;2023-03-08T11:59:06;8.20;;;4.90;;
15946;SDS011;8072;52.554;7.966;2023-03-08T12:04:29;9.53;;;5.37;;
15946;SDS011;8072;52.554;7.966;2023-03-08T12:12:54;8.70;;;4.80;;
15946;SDS011;8072;52.554;7.966;2023-03-08T12:15:38;8.30;;;5.33;;
15946;SDS011;8072;52.554;7.966;2023-03-08T12:18:09;8.17;;;4.60;;
15946;SDS011;8072;52.554;7.966;2023-03-08T12:20:46;11.73;;;4.87;;
15946;SDS011;8072;52.554;7.966;2023-03-08T12:23:33;6.67;;;3.87;;
15946;SDS011;8072;52.554;7.966;2023-03-08T12:26:09;7.13;;;4.07;;
15946;SDS011;8072;52.554;7.966;2023-03-08T12:28:53;7.03;;;4.27;;
15946;SDS011;8072;52.554;7.966;2023-03-08T12:31:30;9.23;;;4.60;;
15946;SDS011;8072;52.554;7.966;2023-03-08T12:34:10;8.17;;;3.80;;
15946;SDS011;8072;52.554;7.966;2023-03-08T12:36:56;9.93;;;4.60;;
15946;SDS011;8072;52.554;7.966;2023-03-08T12:39:32;9.33;;;4.43;;
15946;SDS011;8072;52.554;7.966;2023-03-08T12:44:34;9.43;;;5.47;;
15946;SDS011;8072;52.554;7.966;2023-03-08T12:49:42;9.17;;;5.63;;
15946;SDS011;8072;52.554;7.966;2023-03-08T12:57:26;12.03;;;6.57;;
15946;SDS011;8072;52.554;7.966;2023-03-08T12:59:56;15.90;;;7.73;;
15946;SDS011;8072;52.554;7.966;2023-03-08T13:02:26;14.83;;;7.53;;
15946;SDS011;8072;52.554;7.966;2023-03-08T13:05:00;17.37;;;8.47;;
15946;SDS011;8072;52.554;7.966;2023-03-08T13:08:00;15.50;;;8.17;;
15946;SDS011;8072;52.554;7.966;2023-03-08T13:10:29;19.00;;;8.90;;
15946;SDS011;8072;52.554;7.966;2023-03-08T13:15:33;20.73;;;10.10;;
15946;SDS011;8072;52.554;7.966;2023-03-08T13:23:07;19.83;;;9.37;;
15946;SDS011;8072;52.554;7.966;2023-03-08T13:28:41;15.07;;;8.30;;
15946;SDS011;8072;52.554;7.966;2023-03-08T13:33:46;15.17;;;6.53;;
15946;SDS011;8072;52.554;7.966;2023-03-08T13:36:29;13.60;;;6.33;;
15946;SDS011;8072;52.554;7.966;2023-03-08T13:39:04;11.10;;;6.67;;
15946;SDS011;8072;52.554;7.966;2023-03-08T13:44:15;11.07;;;6.00;;
15946;SDS011;8072;52.554;7.966;2023-03-08T13:46:45;12.73;;;6.60;;
15946;SDS011;8072;52.554;7.966;2023-03-08T13:49:23;12.50;;;6.90;;
15946;SDS011;8072;52.554;7.966;2023-03-08T13:52:01;16.13;;;6.73;;
15946;SDS011;8072;52.554;7.966;2023-03-08T13:54:32;16.90;;;8.83;;
15946;SDS011;8072;52.554;7.966;2023-03-08T13:57:01;16.43;;;8.50;;
15946;SDS011;8072;52.554;7.966;2023-03-08T13:59:30;20.57;;;9.37;;
15946;SDS011;8072;52.554;7.966;2023-03-08T14:01:57;19.80;;;9.13;;
15946;SDS011;8072;52.554;7.966;2023-03-08T14:04:27;23.17;;;10.80;;
15946;SDS011;8072;52.554;7.966;2023-03-08T14:06:58;18.53;;;10.27;;
15946;SDS011;8072;52.554;7.966;2023-03-08T14:09:25;23.17;;;10.77;;
15946;SDS011;8072;52.554;7.966;2023-03-08T14:11:56;21.27;;;11.40;;
15946;SDS011;8072;52.554;7.966;2023-03-08T14:14:33;20.23;;;10.80;;
15946;SDS011;8072;52.554;7.966;2023-03-08T14:17:01;21.77;;;10.40;;
15946;SDS011;8072;52.554;7.966;2023-03-08T14:19:34;17.43;;;9.17;;
15946;SDS011;8072;52.554;7.966;2023-03-08T14:22:08;17.50;;;9.67;;
15946;SDS011;8072;52.554;7.966;2023-03-08T14:24:40;20.80;;;10.27;;
15946;SDS011;8072;52.554;7.966;2023-03-08T14:29:38;18.93;;;9.73;;
15946;SDS011;8072;52.554;7.966;2023-03-08T14:34:38;18.27;;;10.13;;
15946;SDS011;8072;52.554;7.966;2023-03-08T14:37:27;15.40;;;9.00;;
15946;SDS011;8072;52.554;7.966;2023-03-08T14:39:53;19.13;;;9.67;;
15946;SDS011;8072;52.554;7.966;2023-03-08T14:42:40;18.83;;;10.07;;
15946;SDS011;8072;52.554;7.966;2023-03-08T14:48:00;19.43;;;9.77;;
15946;SDS011;8072;52.554;7.966;2023-03-08T14:53:23;17.60;;;10.13;;
15946;SDS011;8072;52.554;7.966;2023-03-08T14:55:53;20.53;;;10.37;;
15946;SDS011;8072;52.554;7.966;2023-03-08T14:58:19;18.00;;;10.43;;
15946;SDS011;8072;52.554;7.966;2023-03-08T15:00:49;18.60;;;9.90;;
15946;SDS011;8072;52.554;7.966;2023-03-08T15:03:17;32.57;;;16.20;;
15946;SDS011;8072;52.554;7.966;2023-03-08T15:05:42;22.20;;;11.30;;
15946;SDS011;8072;52.554;7.966;2023-03-08T15:08:10;22.10;;;11.13;;
15946;SDS011;8072;52.554;7.966;2023-03-08T15:10:37;21.40;;;11.27;;
15946;SDS011;8072;52.554;7.966;2023-03-08T15:13:06;17.53;;;10.93;;
15946;SDS011;8072;52.554;7.966;2023-03-08T15:15:39;18.73;;;10.63;;
15946;SDS011;8072;52.554;7.966;2023-03-08T15:18:05;21.47;;;10.83;;
15946;SDS011;8072;52.554;7.966;2023-03-08T15:20:31;19.77;;;10.93;;
15946;SDS011;8072;52.554;7.966;2023-03-08T15:23:00;22.70;;;11.80;;
15946;SDS011;8072;52.554;7.966;2023-03-08T15:25:32;21.57;;;12.13;;
15946;SDS011;8072;52.554;7.966;2023-03-08T15:27:59;20.00;;;11.23;;
15946;SDS011;8072;52.554;7.966;2023-03-08T15:30:27;20.03;;;11.27;;
15946;SDS011;8072;52.554;7.966;2023-03-08T15:32:54;20.87;;;11.43;;
15946;SDS011;8072;52.554;7.966;2023-03-08T15:35:20;20.23;;;11.67;;
15946;SDS011;8072;52.554;7.966;2023-03-08T15:37:47;20.13;;;11.30;;
15946;SDS011;8072;52.554;7.966;2023-03-08T15:40:15;19.43;;;11.27;;
15946;SDS011;8072;52.554;7.966;2023-03-08T15:42:43;21.43;;;11.33;;
15946;SDS011;8072;52.554;7.966;2023-03-08T15:45:09;18.17;;;10.20;;
15946;SDS011;8072;52.554;7.966;2023-03-08T15:47:36;18.07;;;10.20;;
15946;SDS011;8072;52.554;7.966;2023-03-08T15:50:03;21.03;;;10.20;;
15946;SDS011;8072;52.554;7.966;2023-03-08T15:52:42;15.20;;;9.20;;
15946;SDS011;8072;52.554;7.966;2023-03-08T15:55:10;16.57;;;9.10;;
15946;SDS011;8072;52.554;7.966;2023-03-08T15:57:37;16.17;;;8.83;;
15946;SDS011;8072;52.554;7.966;2023-03-08T16:00:04;16.07;;;8.80;;
15946;SDS011;8072;52.554;7.966;2023-03-08T16:02:36;16.27;;;8.93;;
15946;SDS011;8072;52.554;7.966;2023-03-08T16:05:06;16.60;;;8.67;;
15946;SDS011;8072;52.554;7.966;2023-03-08T16:07:34;16.33;;;8.47;;
15946;SDS011;8072;52.554;7.966;2023-03-08T16:10:00;17.27;;;9.07;;
15946;SDS011;8072;52.554;7.966;2023-03-08T16:12:26;14.80;;;8.43;;
15946;SDS011;8072;52.554;7.966;2023-03-08T16:14:52;14.57;;;8.03;;
15946;SDS011;8072;52.554;7.966;2023-03-08T16:17:21;15.60;;;8.40;;
15946;SDS011;8072;52.554;7.966;2023-03-08T16:19:49;14.90;;;8.73;;
15946;SDS011;8072;52.554;7.966;2023-03-08T16:22:16;16.03;;;8.17;;
15946;SDS011;8072;52.554;7.966;2023-03-08T16:24:42;15.10;;;8.00;;
15946;SDS011;8072;52.554;7.966;2023-03-08T16:27:08;13.37;;;7.97;;
15946;SDS011;8072;52.554;7.966;2023-03-08T16:29:34;15.00;;;7.53;;
15946;SDS011;8072;52.554;7.966;2023-03-08T16:32:00;14.10;;;7.63;;
15946;SDS011;8072;52.554;7.966;2023-03-08T16:34:26;12.03;;;6.23;;
15946;SDS011;8072;52.554;7.966;2023-03-08T16:36:53;12.03;;;7.10;;
15946;SDS011;8072;52.554;7.966;2023-03-08T16:39:20;11.50;;;6.73;;